sensor_id;sensor_type;location;lat;lon;timestamp;P1;durP1;ratioP1;P2;durP2;ratioP2
79412;SDS011;68863;49.528;11.010;2024-03-08T00:00:05;12.23;;;4.85;;
79412;SDS011;68863;49.528;11.010;2024-03-08T00:01:14;11.88;;;5.35;;
79412;SDS011;68863;49.528;11.010;2024-03-08T00:02:16;14.57;;;5.18;;
79412;SDS011;68863;49.528;11.010;2024-03-08T00:03:17;13.20;;;5.80;;
79412;SDS011;68863;49.528;11.010;2024-03-08T00:04:17;13.23;;;4.95;;
79412;SDS011;68863;49.528;11.010;2024-03-08T00:05:17;14.05;;;5.30;;
79412;SDS011;68863;49.528;11.010;2024-03-08T00:06:18;12.07;;;5.00;;
79412;SDS011;68863;49.528;11.010;2024-03-08T00:07:18;12.93;;;4.53;;
79412;SDS011;68863;49.528;11.010;2024-03-08T00:08:19;17.70;;;5.35;;
79412;SDS011;68863;49.528;11.010;2024-03-08T00:09:19;13.38;;;5.53;;
79412;SDS011;68863;49.528;11.010;2024-03-08T00:10:21;14.60;;;5.50;;
79412;SDS011;68863;49.528;11.010;2024-03-08T00:11:21;12.07;;;5.28;;
79412;SDS011;68863;49.528;11.010;2024-03-08T00:12:22;16.60;;;5.15;;
79412;SDS011;68863;49.528;11.010;2024-03-08T00:13:23;13.38;;;5.38;;
79412;SDS011;68863;49.528;11.010;2024-03-08T00:14:25;14.85;;;5.22;;
79412;SDS011;68863;49.528;11.010;2024-03-08T00:15:25;12.73;;;4.95;;
79412;SDS011;68863;49.528;11.010;2024-03-08T00:16:26;13.63;;;5.45;;
79412;SDS011;68863;49.528;11.010;2024-03-08T00:17:27;13.23;;;5.05;;
79412;SDS011;68863;49.528;11.010;2024-03-08T00:18:28;15.32;;;5.18;;
79412;SDS011;68863;49.528;11.010;2024-03-08T00:19:28;15.90;;;5.53;;
79412;SDS011;68863;49.528;11.010;2024-03-08T00:20:29;12.05;;;4.85;;
79412;SDS011;68863;49.528;11.010;2024-03-08T00:21:29;13.77;;;4.85;;
79412;SDS011;68863;49.528;11.010;2024-03-08T00:22:30;16.42;;;5.65;;
79412;SDS011;68863;49.528;11.010;2024-03-08T00:23:30;14.85;;;5.25;;
79412;SDS011;68863;49.528;11.010;2024-03-08T00:24:31;14.90;;;6.00;;
79412;SDS011;68863;49.528;11.010;2024-03-08T00:25:32;12.57;;;5.25;;
79412;SDS011;68863;49.528;11.010;2024-03-08T00:26:32;12.50;;;5.30;;
79412;SDS011;68863;49.528;11.010;2024-03-08T00:27:33;14.95;;;5.40;;
79412;SDS011;68863;49.528;11.010;2024-03-08T00:28:33;14.68;;;5.30;;
79412;SDS011;68863;49.528;11.010;2024-03-08T00:29:37;15.63;;;5.25;;
79412;SDS011;68863;49.528;11.010;2024-03-08T00:30:40;14.32;;;5.50;;
79412;SDS011;68863;49.528;11.010;2024-03-08T00:31:40;14.60;;;5.28;;
79412;SDS011;68863;49.528;11.010;2024-03-08T00:32:41;15.88;;;5.60;;
79412;SDS011;68863;49.528;11.010;2024-03-08T00:33:42;15.93;;;5.68;;
79412;SDS011;68863;49.528;11.010;2024-03-08T00:34:42;13.40;;;5.30;;
79412;SDS011;68863;49.528;11.010;2024-03-08T00:35:43;14.73;;;5.47;;
79412;SDS011;68863;49.528;11.010;2024-03-08T00:36:43;13.63;;;4.55;;
79412;SDS011;68863;49.528;11.010;2024-03-08T00:37:44;15.85;;;5.45;;
79412;SDS011;68863;49.528;11.010;2024-03-08T00:38:47;14.27;;;4.88;;
79412;SDS011;68863;49.528;11.010;2024-03-08T00:39:51;13.82;;;5.47;;
79412;SDS011;68863;49.528;11.010;2024-03-08T00:40:51;12.40;;;5.68;;
79412;SDS011;68863;49.528;11.010;2024-03-08T00:41:52;12.95;;;5.20;;
79412;SDS011;68863;49.528;11.010;2024-03-08T00:42:52;13.23;;;4.90;;
79412;SDS011;68863;49.528;11.010;2024-03-08T00:43:53;14.82;;;5.30;;
79412;SDS011;68863;49.528;11.010;2024-03-08T00:44:53;13.40;;;5.50;;
79412;SDS011;68863;49.528;11.010;2024-03-08T00:45:54;14.25;;;5.22;;
79412;SDS011;68863;49.528;11.010;2024-03-08T00:46:54;12.95;;;4.88;;
79412;SDS011;68863;49.528;11.010;2024-03-08T00:47:55;13.55;;;5.32;;
79412;SDS011;68863;49.528;11.010;2024-03-08T00:48:55;13.30;;;5.03;;
79412;SDS011;68863;49.528;11.010;2024-03-08T00:49:56;15.80;;;5.68;;
79412;SDS011;68863;49.528;11.010;2024-03-08T00:50:56;14.95;;;4.82;;
79412;SDS011;68863;49.528;11.010;2024-03-08T00:51:57;14.98;;;5.15;;
79412;SDS011;68863;49.528;11.010;2024-03-08T00:52:57;15.60;;;5.53;;
79412;SDS011;68863;49.528;11.010;2024-03-08T00:53:58;13.60;;;5.57;;
79412;SDS011;68863;49.528;11.010;2024-03-08T00:54:58;15.07;;;5.30;;
79412;SDS011;68863;49.528;11.010;2024-03-08T00:55:58;16.63;;;5.80;;
79412;SDS011;68863;49.528;11.010;2024-03-08T00:56:59;15.75;;;5.85;;
79412;SDS011;68863;49.528;11.010;2024-03-08T00:58:02;14.88;;;5.45;;
79412;SDS011;68863;49.528;11.010;2024-03-08T00:59:03;12.57;;;5.25;;
79412;SDS011;68863;49.528;11.010;2024-03-08T01:00:04;11.85;;;4.90;;
79412;SDS011;68863;49.528;11.010;2024-03-08T01:01:09;13.85;;;6.40;;
79412;SDS011;68863;49.528;11.010;2024-03-08T01:02:09;15.10;;;5.47;;
79412;SDS011;68863;49.528;11.010;2024-03-08T01:03:10;14.50;;;5.63;;
79412;SDS011;68863;49.528;11.010;2024-03-08T01:04:11;13.88;;;5.50;;
79412;SDS011;68863;49.528;11.010;2024-03-08T01:05:11;15.82;;;5.45;;
79412;SDS011;68863;49.528;11.010;2024-03-08T01:06:12;18.73;;;6.95;;
79412;SDS011;68863;49.528;11.010;2024-03-08T01:07:12;15.70;;;5.95;;
79412;SDS011;68863;49.528;11.010;2024-03-08T01:08:13;16.70;;;6.22;;
79412;SDS011;68863;49.528;11.010;2024-03-08T01:09:13;12.95;;;5.43;;
79412;SDS011;68863;49.528;11.010;2024-03-08T01:10:13;16.45;;;6.38;;
79412;SDS011;68863;49.528;11.010;2024-03-08T01:11:14;13.90;;;5.65;;
79412;SDS011;68863;49.528;11.010;2024-03-08T01:12:15;16.38;;;4.82;;
79412;SDS011;68863;49.528;11.010;2024-03-08T01:13:15;14.93;;;5.30;;
79412;SDS011;68863;49.528;11.010;2024-03-08T01:14:16;16.00;;;5.80;;
79412;SDS011;68863;49.528;11.010;2024-03-08T01:15:16;13.80;;;5.90;;
79412;SDS011;68863;49.528;11.010;2024-03-08T01:16:17;14.10;;;5.47;;
79412;SDS011;68863;49.528;11.010;2024-03-08T01:17:17;13.13;;;4.90;;
79412;SDS011;68863;49.528;11.010;2024-03-08T01:18:18;14.25;;;5.50;;
79412;SDS011;68863;49.528;11.010;2024-03-08T01:19:19;12.90;;;5.05;;
79412;SDS011;68863;49.528;11.010;2024-03-08T01:20:20;17.63;;;5.93;;
79412;SDS011;68863;49.528;11.010;2024-03-08T01:21:21;16.98;;;5.40;;
79412;SDS011;68863;49.528;11.010;2024-03-08T01:22:22;13.77;;;5.20;;
79412;SDS011;68863;49.528;11.010;2024-03-08T01:23:22;15.38;;;5.38;;
79412;SDS011;68863;49.528;11.010;2024-03-08T01:24:23;12.75;;;5.35;;
79412;SDS011;68863;49.528;11.010;2024-03-08T01:25:23;13.82;;;5.50;;
79412;SDS011;68863;49.528;11.010;2024-03-08T01:26:23;13.63;;;5.35;;
79412;SDS011;68863;49.528;11.010;2024-03-08T01:27:24;12.55;;;5.15;;
79412;SDS011;68863;49.528;11.010;2024-03-08T01:28:25;12.65;;;5.47;;
79412;SDS011;68863;49.528;11.010;2024-03-08T01:29:26;14.73;;;5.75;;
79412;SDS011;68863;49.528;11.010;2024-03-08T01:30:27;15.15;;;5.90;;
79412;SDS011;68863;49.528;11.010;2024-03-08T01:31:28;14.38;;;5.43;;
79412;SDS011;68863;49.528;11.010;2024-03-08T01:32:29;16.83;;;5.60;;
79412;SDS011;68863;49.528;11.010;2024-03-08T01:33:30;16.75;;;5.45;;
79412;SDS011;68863;49.528;11.010;2024-03-08T01:34:31;13.23;;;4.97;;
79412;SDS011;68863;49.528;11.010;2024-03-08T01:35:33;14.45;;;5.13;;
79412;SDS011;68863;49.528;11.010;2024-03-08T01:36:34;16.17;;;5.75;;
79412;SDS011;68863;49.528;11.010;2024-03-08T01:37:37;15.15;;;5.18;;
79412;SDS011;68863;49.528;11.010;2024-03-08T01:38:38;13.65;;;5.28;;
79412;SDS011;68863;49.528;11.010;2024-03-08T01:39:38;15.85;;;6.00;;
79412;SDS011;68863;49.528;11.010;2024-03-08T01:40:39;13.23;;;5.57;;
79412;SDS011;68863;49.528;11.010;2024-03-08T01:41:41;15.13;;;5.65;;
79412;SDS011;68863;49.528;11.010;2024-03-08T01:42:41;15.48;;;5.72;;
79412;SDS011;68863;49.528;11.010;2024-03-08T01:43:41;13.73;;;5.00;;
79412;SDS011;68863;49.528;11.010;2024-03-08T01:44:42;14.57;;;6.43;;
79412;SDS011;68863;49.528;11.010;2024-03-08T01:45:43;16.55;;;5.53;;
79412;SDS011;68863;49.528;11.010;2024-03-08T01:46:44;16.95;;;6.00;;
79412;SDS011;68863;49.528;11.010;2024-03-08T01:47:45;13.73;;;5.65;;
79412;SDS011;68863;49.528;11.010;2024-03-08T01:48:48;14.75;;;5.10;;
79412;SDS011;68863;49.528;11.010;2024-03-08T01:50:51;14.18;;;4.95;;
79412;SDS011;68863;49.528;11.010;2024-03-08T01:51:54;15.02;;;5.80;;
79412;SDS011;68863;49.528;11.010;2024-03-08T01:52:56;16.92;;;4.78;;
79412;SDS011;68863;49.528;11.010;2024-03-08T01:54:00;14.05;;;4.55;;
79412;SDS011;68863;49.528;11.010;2024-03-08T01:55:03;15.57;;;5.22;;
79412;SDS011;68863;49.528;11.010;2024-03-08T01:56:07;14.55;;;5.53;;
79412;SDS011;68863;49.528;11.010;2024-03-08T01:57:08;13.23;;;5.47;;
79412;SDS011;68863;49.528;11.010;2024-03-08T01:58:09;15.18;;;5.82;;
79412;SDS011;68863;49.528;11.010;2024-03-08T01:59:11;15.18;;;5.22;;
79412;SDS011;68863;49.528;11.010;2024-03-08T02:00:14;17.70;;;5.18;;
79412;SDS011;68863;49.528;11.010;2024-03-08T02:01:16;14.82;;;6.03;;
79412;SDS011;68863;49.528;11.010;2024-03-08T02:02:19;14.88;;;5.10;;
79412;SDS011;68863;49.528;11.010;2024-03-08T02:04:22;13.38;;;4.78;;
79412;SDS011;68863;49.528;11.010;2024-03-08T02:05:24;13.15;;;5.13;;
79412;SDS011;68863;49.528;11.010;2024-03-08T02:06:25;15.50;;;5.55;;
79412;SDS011;68863;49.528;11.010;2024-03-08T02:07:26;14.07;;;5.22;;
79412;SDS011;68863;49.528;11.010;2024-03-08T02:08:26;13.98;;;4.95;;
79412;SDS011;68863;49.528;11.010;2024-03-08T02:09:27;14.65;;;5.63;;
79412;SDS011;68863;49.528;11.010;2024-03-08T02:10:28;15.23;;;4.72;;
79412;SDS011;68863;49.528;11.010;2024-03-08T02:11:30;14.05;;;5.20;;
79412;SDS011;68863;49.528;11.010;2024-03-08T02:12:30;14.48;;;4.88;;
79412;SDS011;68863;49.528;11.010;2024-03-08T02:13:30;15.52;;;5.80;;
79412;SDS011;68863;49.528;11.010;2024-03-08T02:14:31;13.70;;;5.35;;
79412;SDS011;68863;49.528;11.010;2024-03-08T02:16:54;13.63;;;5.82;;
79412;SDS011;68863;49.528;11.010;2024-03-08T02:17:57;14.30;;;5.20;;
79412;SDS011;68863;49.528;11.010;2024-03-08T02:18:58;13.52;;;5.13;;
79412;SDS011;68863;49.528;11.010;2024-03-08T02:19:58;13.85;;;5.53;;
79412;SDS011;68863;49.528;11.010;2024-03-08T02:21:05;12.43;;;4.78;;
79412;SDS011;68863;49.528;11.010;2024-03-08T02:22:07;14.85;;;5.10;;
79412;SDS011;68863;49.528;11.010;2024-03-08T02:23:08;14.30;;;5.72;;
79412;SDS011;68863;49.528;11.010;2024-03-08T02:24:09;14.10;;;5.32;;
79412;SDS011;68863;49.528;11.010;2024-03-08T02:25:10;15.38;;;5.85;;
79412;SDS011;68863;49.528;11.010;2024-03-08T02:26:11;13.20;;;5.65;;
79412;SDS011;68863;49.528;11.010;2024-03-08T02:27:11;16.08;;;5.70;;
79412;SDS011;68863;49.528;11.010;2024-03-08T02:28:12;15.23;;;5.88;;
79412;SDS011;68863;49.528;11.010;2024-03-08T02:29:13;13.82;;;5.47;;
79412;SDS011;68863;49.528;11.010;2024-03-08T02:30:14;15.18;;;5.15;;
79412;SDS011;68863;49.528;11.010;2024-03-08T02:31:17;13.95;;;4.97;;
79412;SDS011;68863;49.528;11.010;2024-03-08T02:32:17;13.23;;;5.78;;
79412;SDS011;68863;49.528;11.010;2024-03-08T02:33:19;14.55;;;5.80;;
79412;SDS011;68863;49.528;11.010;2024-03-08T02:34:19;13.32;;;5.22;;
79412;SDS011;68863;49.528;11.010;2024-03-08T02:35:20;14.52;;;5.20;;
79412;SDS011;68863;49.528;11.010;2024-03-08T02:36:20;16.40;;;5.72;;
79412;SDS011;68863;49.528;11.010;2024-03-08T02:37:21;17.40;;;6.13;;
79412;SDS011;68863;49.528;11.010;2024-03-08T02:38:22;14.48;;;5.88;;
79412;SDS011;68863;49.528;11.010;2024-03-08T02:39:24;15.20;;;5.32;;
79412;SDS011;68863;49.528;11.010;2024-03-08T02:40:24;11.85;;;5.25;;
79412;SDS011;68863;49.528;11.010;2024-03-08T02:41:24;15.55;;;6.03;;
79412;SDS011;68863;49.528;11.010;2024-03-08T02:42:25;15.02;;;5.95;;
79412;SDS011;68863;49.528;11.010;2024-03-08T02:43:25;16.65;;;5.82;;
79412;SDS011;68863;49.528;11.010;2024-03-08T02:44:25;13.25;;;5.00;;
79412;SDS011;68863;49.528;11.010;2024-03-08T02:45:26;14.57;;;6.10;;
79412;SDS011;68863;49.528;11.010;2024-03-08T02:46:26;15.45;;;5.38;;
79412;SDS011;68863;49.528;11.010;2024-03-08T02:47:26;14.50;;;5.97;;
79412;SDS011;68863;49.528;11.010;2024-03-08T02:48:26;13.70;;;5.28;;
79412;SDS011;68863;49.528;11.010;2024-03-08T02:49:27;17.70;;;6.03;;
79412;SDS011;68863;49.528;11.010;2024-03-08T02:50:27;16.98;;;6.22;;
79412;SDS011;68863;49.528;11.010;2024-03-08T02:51:28;17.42;;;5.43;;
79412;SDS011;68863;49.528;11.010;2024-03-08T02:52:29;13.90;;;5.13;;
79412;SDS011;68863;49.528;11.010;2024-03-08T02:53:29;14.90;;;5.85;;
79412;SDS011;68863;49.528;11.010;2024-03-08T02:54:29;14.88;;;5.70;;
79412;SDS011;68863;49.528;11.010;2024-03-08T02:55:30;11.90;;;4.82;;
79412;SDS011;68863;49.528;11.010;2024-03-08T02:56:30;16.50;;;6.90;;
79412;SDS011;68863;49.528;11.010;2024-03-08T02:57:34;15.38;;;6.03;;
79412;SDS011;68863;49.528;11.010;2024-03-08T02:58:35;16.53;;;6.07;;
79412;SDS011;68863;49.528;11.010;2024-03-08T02:59:35;15.97;;;4.70;;
79412;SDS011;68863;49.528;11.010;2024-03-08T03:00:36;15.05;;;5.72;;
79412;SDS011;68863;49.528;11.010;2024-03-08T03:01:36;13.10;;;4.75;;
79412;SDS011;68863;49.528;11.010;2024-03-08T03:02:38;13.75;;;4.65;;
79412;SDS011;68863;49.528;11.010;2024-03-08T03:03:38;14.05;;;5.78;;
79412;SDS011;68863;49.528;11.010;2024-03-08T03:04:39;13.87;;;5.90;;
79412;SDS011;68863;49.528;11.010;2024-03-08T03:05:40;16.45;;;6.05;;
79412;SDS011;68863;49.528;11.010;2024-03-08T03:06:43;14.57;;;5.95;;
79412;SDS011;68863;49.528;11.010;2024-03-08T03:07:44;13.63;;;5.73;;
79412;SDS011;68863;49.528;11.010;2024-03-08T03:08:44;15.23;;;5.68;;
79412;SDS011;68863;49.528;11.010;2024-03-08T03:09:45;17.17;;;5.68;;
79412;SDS011;68863;49.528;11.010;2024-03-08T03:10:45;14.63;;;6.18;;
79412;SDS011;68863;49.528;11.010;2024-03-08T03:11:46;14.02;;;5.57;;
79412;SDS011;68863;49.528;11.010;2024-03-08T03:12:46;12.30;;;5.95;;
79412;SDS011;68863;49.528;11.010;2024-03-08T03:13:48;13.02;;;5.22;;
79412;SDS011;68863;49.528;11.010;2024-03-08T03:14:48;17.05;;;5.80;;
79412;SDS011;68863;49.528;11.010;2024-03-08T03:15:48;14.80;;;5.78;;
79412;SDS011;68863;49.528;11.010;2024-03-08T03:16:49;16.77;;;5.63;;
79412;SDS011;68863;49.528;11.010;2024-03-08T03:17:50;14.02;;;5.32;;
79412;SDS011;68863;49.528;11.010;2024-03-08T03:18:50;14.30;;;6.15;;
79412;SDS011;68863;49.528;11.010;2024-03-08T03:19:51;12.77;;;5.37;;
79412;SDS011;68863;49.528;11.010;2024-03-08T03:20:52;14.82;;;5.55;;
79412;SDS011;68863;49.528;11.010;2024-03-08T03:21:52;14.43;;;5.50;;
79412;SDS011;68863;49.528;11.010;2024-03-08T03:22:52;13.98;;;5.30;;
79412;SDS011;68863;49.528;11.010;2024-03-08T03:23:53;13.98;;;5.15;;
79412;SDS011;68863;49.528;11.010;2024-03-08T03:24:53;14.20;;;5.57;;
79412;SDS011;68863;49.528;11.010;2024-03-08T03:25:53;15.53;;;5.83;;
79412;SDS011;68863;49.528;11.010;2024-03-08T03:26:57;12.52;;;5.63;;
79412;SDS011;68863;49.528;11.010;2024-03-08T03:27:57;17.63;;;6.40;;
79412;SDS011;68863;49.528;11.010;2024-03-08T03:28:57;14.75;;;5.50;;
79412;SDS011;68863;49.528;11.010;2024-03-08T03:30:00;11.80;;;5.50;;
79412;SDS011;68863;49.528;11.010;2024-03-08T03:31:20;15.05;;;5.85;;
79412;SDS011;68863;49.528;11.010;2024-03-08T03:32:23;13.98;;;5.53;;
79412;SDS011;68863;49.528;11.010;2024-03-08T03:33:24;15.35;;;6.28;;
79412;SDS011;68863;49.528;11.010;2024-03-08T03:34:24;16.25;;;5.97;;
79412;SDS011;68863;49.528;11.010;2024-03-08T03:35:25;13.45;;;5.82;;
79412;SDS011;68863;49.528;11.010;2024-03-08T03:36:25;15.65;;;5.45;;
79412;SDS011;68863;49.528;11.010;2024-03-08T03:37:25;13.85;;;5.88;;
79412;SDS011;68863;49.528;11.010;2024-03-08T03:38:26;16.55;;;6.18;;
79412;SDS011;68863;49.528;11.010;2024-03-08T03:39:28;16.90;;;6.78;;
79412;SDS011;68863;49.528;11.010;2024-03-08T03:40:35;14.27;;;6.10;;
79412;SDS011;68863;49.528;11.010;2024-03-08T03:41:38;14.82;;;5.93;;
79412;SDS011;68863;49.528;11.010;2024-03-08T03:42:39;14.20;;;5.43;;
79412;SDS011;68863;49.528;11.010;2024-03-08T03:43:39;13.98;;;5.32;;
79412;SDS011;68863;49.528;11.010;2024-03-08T03:44:40;15.05;;;6.00;;
79412;SDS011;68863;49.528;11.010;2024-03-08T03:45:40;15.50;;;5.95;;
79412;SDS011;68863;49.528;11.010;2024-03-08T03:46:41;15.82;;;5.65;;
79412;SDS011;68863;49.528;11.010;2024-03-08T03:47:44;15.00;;;5.80;;
79412;SDS011;68863;49.528;11.010;2024-03-08T03:48:44;14.97;;;5.70;;
79412;SDS011;68863;49.528;11.010;2024-03-08T03:49:44;17.30;;;5.70;;
79412;SDS011;68863;49.528;11.010;2024-03-08T03:50:45;12.98;;;5.57;;
79412;SDS011;68863;49.528;11.010;2024-03-08T03:51:45;13.40;;;5.60;;
79412;SDS011;68863;49.528;11.010;2024-03-08T03:52:46;13.98;;;6.13;;
79412;SDS011;68863;49.528;11.010;2024-03-08T03:53:47;14.68;;;6.13;;
79412;SDS011;68863;49.528;11.010;2024-03-08T03:54:48;14.13;;;5.30;;
79412;SDS011;68863;49.528;11.010;2024-03-08T03:55:49;14.82;;;5.53;;
79412;SDS011;68863;49.528;11.010;2024-03-08T03:56:49;12.75;;;5.35;;
79412;SDS011;68863;49.528;11.010;2024-03-08T03:57:52;13.93;;;5.13;;
79412;SDS011;68863;49.528;11.010;2024-03-08T03:58:53;13.20;;;5.22;;
79412;SDS011;68863;49.528;11.010;2024-03-08T03:59:53;14.18;;;5.57;;
79412;SDS011;68863;49.528;11.010;2024-03-08T04:00:53;14.07;;;5.47;;
79412;SDS011;68863;49.528;11.010;2024-03-08T04:01:54;13.85;;;5.50;;
79412;SDS011;68863;49.528;11.010;2024-03-08T04:02:54;14.35;;;5.88;;
79412;SDS011;68863;49.528;11.010;2024-03-08T04:03:58;12.23;;;5.55;;
79412;SDS011;68863;49.528;11.010;2024-03-08T04:04:59;16.10;;;5.43;;
79412;SDS011;68863;49.528;11.010;2024-03-08T04:05:59;16.60;;;6.40;;
79412;SDS011;68863;49.528;11.010;2024-03-08T04:06:59;15.13;;;6.27;;
79412;SDS011;68863;49.528;11.010;2024-03-08T04:08:00;16.88;;;5.80;;
79412;SDS011;68863;49.528;11.010;2024-03-08T04:09:00;14.88;;;5.75;;
79412;SDS011;68863;49.528;11.010;2024-03-08T04:10:01;15.27;;;6.15;;
79412;SDS011;68863;49.528;11.010;2024-03-08T04:11:02;13.13;;;5.88;;
79412;SDS011;68863;49.528;11.010;2024-03-08T04:12:02;14.35;;;6.00;;
79412;SDS011;68863;49.528;11.010;2024-03-08T04:13:03;14.30;;;5.07;;
79412;SDS011;68863;49.528;11.010;2024-03-08T04:14:03;14.98;;;5.63;;
79412;SDS011;68863;49.528;11.010;2024-03-08T04:15:05;13.55;;;6.00;;
79412;SDS011;68863;49.528;11.010;2024-03-08T04:16:10;14.02;;;5.93;;
79412;SDS011;68863;49.528;11.010;2024-03-08T04:17:11;13.95;;;5.55;;
79412;SDS011;68863;49.528;11.010;2024-03-08T04:18:14;13.95;;;5.32;;
79412;SDS011;68863;49.528;11.010;2024-03-08T04:19:14;15.48;;;6.43;;
79412;SDS011;68863;49.528;11.010;2024-03-08T04:20:15;18.67;;;6.55;;
79412;SDS011;68863;49.528;11.010;2024-03-08T04:21:17;15.85;;;6.38;;
79412;SDS011;68863;49.528;11.010;2024-03-08T04:22:19;18.42;;;6.30;;
79412;SDS011;68863;49.528;11.010;2024-03-08T04:23:19;16.00;;;6.47;;
79412;SDS011;68863;49.528;11.010;2024-03-08T04:24:19;15.45;;;5.97;;
79412;SDS011;68863;49.528;11.010;2024-03-08T04:25:20;16.20;;;5.80;;
79412;SDS011;68863;49.528;11.010;2024-03-08T04:26:21;18.73;;;6.13;;
79412;SDS011;68863;49.528;11.010;2024-03-08T04:27:23;13.93;;;5.78;;
79412;SDS011;68863;49.528;11.010;2024-03-08T04:28:23;13.70;;;5.38;;
79412;SDS011;68863;49.528;11.010;2024-03-08T04:29:24;13.30;;;5.40;;
79412;SDS011;68863;49.528;11.010;2024-03-08T04:30:24;16.13;;;6.47;;
79412;SDS011;68863;49.528;11.010;2024-03-08T04:31:24;14.48;;;5.40;;
79412;SDS011;68863;49.528;11.010;2024-03-08T04:32:26;16.65;;;5.85;;
79412;SDS011;68863;49.528;11.010;2024-03-08T04:33:29;14.80;;;5.72;;
79412;SDS011;68863;49.528;11.010;2024-03-08T04:34:30;18.35;;;6.28;;
79412;SDS011;68863;49.528;11.010;2024-03-08T04:35:30;18.23;;;6.05;;
79412;SDS011;68863;49.528;11.010;2024-03-08T04:36:31;16.83;;;5.93;;
79412;SDS011;68863;49.528;11.010;2024-03-08T04:37:31;16.55;;;6.65;;
79412;SDS011;68863;49.528;11.010;2024-03-08T04:38:31;18.05;;;7.05;;
79412;SDS011;68863;49.528;11.010;2024-03-08T04:39:32;15.85;;;5.90;;
79412;SDS011;68863;49.528;11.010;2024-03-08T04:40:32;15.15;;;6.00;;
79412;SDS011;68863;49.528;11.010;2024-03-08T04:41:32;18.00;;;6.60;;
79412;SDS011;68863;49.528;11.010;2024-03-08T04:42:34;16.08;;;6.00;;
79412;SDS011;68863;49.528;11.010;2024-03-08T04:43:37;16.70;;;6.50;;
79412;SDS011;68863;49.528;11.010;2024-03-08T04:44:37;16.80;;;6.05;;
79412;SDS011;68863;49.528;11.010;2024-03-08T04:45:37;15.73;;;5.80;;
79412;SDS011;68863;49.528;11.010;2024-03-08T04:46:39;15.57;;;6.03;;
79412;SDS011;68863;49.528;11.010;2024-03-08T04:47:39;14.98;;;5.55;;
79412;SDS011;68863;49.528;11.010;2024-03-08T04:48:40;17.55;;;5.95;;
79412;SDS011;68863;49.528;11.010;2024-03-08T04:49:42;15.05;;;5.88;;
79412;SDS011;68863;49.528;11.010;2024-03-08T04:50:42;16.67;;;6.53;;
79412;SDS011;68863;49.528;11.010;2024-03-08T04:51:44;16.33;;;6.00;;
79412;SDS011;68863;49.528;11.010;2024-03-08T04:52:45;16.17;;;5.70;;
79412;SDS011;68863;49.528;11.010;2024-03-08T04:53:45;15.95;;;6.50;;
79412;SDS011;68863;49.528;11.010;2024-03-08T04:54:45;20.52;;;7.32;;
79412;SDS011;68863;49.528;11.010;2024-03-08T04:55:46;15.70;;;6.90;;
79412;SDS011;68863;49.528;11.010;2024-03-08T04:56:46;15.55;;;6.25;;
79412;SDS011;68863;49.528;11.010;2024-03-08T04:57:49;18.13;;;6.40;;
79412;SDS011;68863;49.528;11.010;2024-03-08T04:58:49;15.13;;;5.47;;
79412;SDS011;68863;49.528;11.010;2024-03-08T04:59:50;17.35;;;6.72;;
79412;SDS011;68863;49.528;11.010;2024-03-08T05:00:50;15.87;;;6.33;;
79412;SDS011;68863;49.528;11.010;2024-03-08T05:01:50;15.95;;;6.00;;
79412;SDS011;68863;49.528;11.010;2024-03-08T05:02:51;16.50;;;6.50;;
79412;SDS011;68863;49.528;11.010;2024-03-08T05:03:53;19.45;;;7.10;;
79412;SDS011;68863;49.528;11.010;2024-03-08T05:04:55;16.92;;;6.50;;
79412;SDS011;68863;49.528;11.010;2024-03-08T05:05:55;15.05;;;6.10;;
79412;SDS011;68863;49.528;11.010;2024-03-08T05:06:56;15.95;;;6.00;;
79412;SDS011;68863;49.528;11.010;2024-03-08T05:07:57;17.42;;;6.65;;
79412;SDS011;68863;49.528;11.010;2024-03-08T05:08:57;15.55;;;6.20;;
79412;SDS011;68863;49.528;11.010;2024-03-08T05:09:58;15.07;;;5.85;;
79412;SDS011;68863;49.528;11.010;2024-03-08T05:10:58;17.67;;;6.47;;
79412;SDS011;68863;49.528;11.010;2024-03-08T05:12:00;17.55;;;6.90;;
79412;SDS011;68863;49.528;11.010;2024-03-08T05:13:01;13.70;;;5.43;;
79412;SDS011;68863;49.528;11.010;2024-03-08T05:14:01;15.90;;;5.85;;
79412;SDS011;68863;49.528;11.010;2024-03-08T05:15:02;15.43;;;5.70;;
79412;SDS011;68863;49.528;11.010;2024-03-08T05:16:02;16.77;;;6.65;;
79412;SDS011;68863;49.528;11.010;2024-03-08T05:17:03;14.95;;;6.43;;
79412;SDS011;68863;49.528;11.010;2024-03-08T05:18:03;14.55;;;6.47;;
79412;SDS011;68863;49.528;11.010;2024-03-08T05:19:08;14.68;;;6.75;;
79412;SDS011;68863;49.528;11.010;2024-03-08T05:20:08;18.92;;;6.97;;
79412;SDS011;68863;49.528;11.010;2024-03-08T05:21:17;20.38;;;8.05;;
79412;SDS011;68863;49.528;11.010;2024-03-08T05:22:21;18.95;;;7.82;;
79412;SDS011;68863;49.528;11.010;2024-03-08T05:23:24;17.98;;;7.05;;
79412;SDS011;68863;49.528;11.010;2024-03-08T05:24:24;21.73;;;8.55;;
79412;SDS011;68863;49.528;11.010;2024-03-08T05:25:24;23.48;;;8.52;;
79412;SDS011;68863;49.528;11.010;2024-03-08T05:26:26;17.13;;;7.10;;
79412;SDS011;68863;49.528;11.010;2024-03-08T05:27:26;19.37;;;7.53;;
79412;SDS011;68863;49.528;11.010;2024-03-08T05:28:28;17.55;;;6.50;;
79412;SDS011;68863;49.528;11.010;2024-03-08T05:29:29;20.65;;;7.85;;
79412;SDS011;68863;49.528;11.010;2024-03-08T05:30:29;18.08;;;8.02;;
79412;SDS011;68863;49.528;11.010;2024-03-08T05:31:31;15.60;;;6.95;;
79412;SDS011;68863;49.528;11.010;2024-03-08T05:32:42;18.15;;;6.82;;
79412;SDS011;68863;49.528;11.010;2024-03-08T05:33:45;18.23;;;6.60;;
79412;SDS011;68863;49.528;11.010;2024-03-08T05:34:46;18.05;;;6.53;;
79412;SDS011;68863;49.528;11.010;2024-03-08T05:35:46;17.02;;;7.25;;
79412;SDS011;68863;49.528;11.010;2024-03-08T05:36:47;16.52;;;7.00;;
79412;SDS011;68863;49.528;11.010;2024-03-08T05:37:50;13.43;;;5.70;;
79412;SDS011;68863;49.528;11.010;2024-03-08T05:38:50;18.73;;;6.45;;
79412;SDS011;68863;49.528;11.010;2024-03-08T05:39:51;19.93;;;6.53;;
79412;SDS011;68863;49.528;11.010;2024-03-08T05:40:51;16.95;;;6.50;;
79412;SDS011;68863;49.528;11.010;2024-03-08T05:41:51;14.00;;;5.78;;
79412;SDS011;68863;49.528;11.010;2024-03-08T05:42:52;18.33;;;6.47;;
79412;SDS011;68863;49.528;11.010;2024-03-08T05:43:52;17.67;;;6.60;;
79412;SDS011;68863;49.528;11.010;2024-03-08T05:44:53;16.60;;;6.45;;
79412;SDS011;68863;49.528;11.010;2024-03-08T05:45:57;16.80;;;6.80;;
79412;SDS011;68863;49.528;11.010;2024-03-08T05:46:57;16.67;;;6.78;;
79412;SDS011;68863;49.528;11.010;2024-03-08T05:47:57;17.85;;;6.30;;
79412;SDS011;68863;49.528;11.010;2024-03-08T05:48:58;16.23;;;6.43;;
79412;SDS011;68863;49.528;11.010;2024-03-08T05:50:05;17.40;;;6.97;;
79412;SDS011;68863;49.528;11.010;2024-03-08T05:51:08;18.65;;;6.07;;
79412;SDS011;68863;49.528;11.010;2024-03-08T05:52:08;18.88;;;6.57;;
79412;SDS011;68863;49.528;11.010;2024-03-08T05:53:09;15.45;;;6.10;;
79412;SDS011;68863;49.528;11.010;2024-03-08T05:54:10;16.85;;;6.60;;
79412;SDS011;68863;49.528;11.010;2024-03-08T05:55:11;17.17;;;6.80;;
79412;SDS011;68863;49.528;11.010;2024-03-08T05:56:14;17.20;;;6.63;;
79412;SDS011;68863;49.528;11.010;2024-03-08T05:57:14;18.17;;;6.55;;
79412;SDS011;68863;49.528;11.010;2024-03-08T05:58:15;17.40;;;6.60;;
79412;SDS011;68863;49.528;11.010;2024-03-08T05:59:15;19.70;;;6.65;;
79412;SDS011;68863;49.528;11.010;2024-03-08T06:00:15;17.45;;;6.78;;